KGAI/GAI METAR and TAF weather

Enter ICAO airport designator
Station Type Date Time Source
KGAI METAR 2019/04/24 15:56 UTC NOAA

KGAI 241556Z AUTO 31012G18KT 10SM CLR 19/06 A2990 RMK AO2 SLP149 T01940056


Station Type Date Time Source
KGAI Decoded METAR 2019/04/24 15:56 UTC NOAA

Station name not available
Apr 24, 2019 - 11:56 AM EDT / 2019.04.24 1556 UTC
Wind: from the NW (310 degrees) at 14 MPH (12 KT) gusting to 21 MPH (18 KT):0
Visibility: 10 mile(s):0
Sky conditions: clear
Temperature: 66.9 F (19.4 C)
Dew Point: 42.1 F (5.6 C)
Relative Humidity: 40%
Pressure (altimeter): 29.9 in. Hg (1012 hPa)
ob: KGAI 241556Z AUTO 31012G18KT 10SM CLR 19/06 A2990 RMK AO2 SLP149 T01940056
cycle: 16

Station Type Date Time Source
KGAI TAF UTC NOAA

Error!

Example: see airport list